sensor_id;sensor_type;location;lat;lon;timestamp;temperature;humidity
16327;DHT22;34812;49.846;9.610;2022-10-17T00:00:44;13.50;99.90
16327;DHT22;34812;49.846;9.610;2022-10-17T00:01:46;13.50;99.90
16327;DHT22;34812;49.846;9.610;2022-10-17T00:02:47;13.50;99.90
16327;DHT22;34812;49.846;9.610;2022-10-17T00:03:48;13.60;99.90
16327;DHT22;34812;49.846;9.610;2022-10-17T00:04:50;13.50;99.90
16327;DHT22;34812;49.846;9.610;2022-10-17T00:05:52;13.50;99.90
16327;DHT22;34812;49.846;9.610;2022-10-17T00:06:53;13.50;99.90
16327;DHT22;34812;49.846;9.610;2022-10-17T00:07:55;13.50;99.90
16327;DHT22;34812;49.846;9.610;2022-10-17T00:08:56;13.50;99.90
16327;DHT22;34812;49.846;9.610;2022-10-17T00:09:58;13.50;99.90
16327;DHT22;34812;49.846;9.610;2022-10-17T00:11:00;13.50;99.90
16327;DHT22;34812;49.846;9.610;2022-10-17T00:12:02;13.50;99.90
16327;DHT22;34812;49.846;9.610;2022-10-17T00:13:03;13.50;99.90
16327;DHT22;34812;49.846;9.610;2022-10-17T00:14:05;13.50;99.90
16327;DHT22;34812;49.846;9.610;2022-10-17T00:15:07;13.60;99.90
16327;DHT22;34812;49.846;9.610;2022-10-17T00:16:09;13.60;99.90
16327;DHT22;34812;49.846;9.610;2022-10-17T00:17:09;13.50;99.90
16327;DHT22;34812;49.846;9.610;2022-10-17T00:18:11;13.50;99.90
16327;DHT22;34812;49.846;9.610;2022-10-17T00:19:12;13.50;99.90
16327;DHT22;34812;49.846;9.610;2022-10-17T00:20:15;13.50;99.90
16327;DHT22;34812;49.846;9.610;2022-10-17T00:21:17;13.50;99.90
16327;DHT22;34812;49.846;9.610;2022-10-17T00:22:19;13.50;99.90
16327;DHT22;34812;49.846;9.610;2022-10-17T00:23:19;13.50;99.90
16327;DHT22;34812;49.846;9.610;2022-10-17T00:24:21;13.50;99.90
16327;DHT22;34812;49.846;9.610;2022-10-17T00:25:22;13.50;99.90
16327;DHT22;34812;49.846;9.610;2022-10-17T00:26:23;13.50;99.90
16327;DHT22;34812;49.846;9.610;2022-10-17T00:27:24;13.50;99.90
16327;DHT22;34812;49.846;9.610;2022-10-17T00:28:26;13.50;99.90
16327;DHT22;34812;49.846;9.610;2022-10-17T00:29:27;13.50;99.90
16327;DHT22;34812;49.846;9.610;2022-10-17T00:30:29;13.50;99.90
16327;DHT22;34812;49.846;9.610;2022-10-17T00:31:32;13.50;99.90
16327;DHT22;34812;49.846;9.610;2022-10-17T00:32:35;13.50;99.90
16327;DHT22;34812;49.846;9.610;2022-10-17T00:33:35;13.50;99.90
16327;DHT22;34812;49.846;9.610;2022-10-17T00:34:38;13.50;99.90
16327;DHT22;34812;49.846;9.610;2022-10-17T00:35:40;13.50;99.90
16327;DHT22;34812;49.846;9.610;2022-10-17T00:36:42;13.40;99.90
16327;DHT22;34812;49.846;9.610;2022-10-17T00:37:43;13.40;99.90
16327;DHT22;34812;49.846;9.610;2022-10-17T00:38:46;13.40;99.90
16327;DHT22;34812;49.846;9.610;2022-10-17T00:39:47;13.40;99.90
16327;DHT22;34812;49.846;9.610;2022-10-17T00:40:49;13.40;99.90
16327;DHT22;34812;49.846;9.610;2022-10-17T00:41:50;13.30;99.90
16327;DHT22;34812;49.846;9.610;2022-10-17T00:42:51;13.30;99.90
16327;DHT22;34812;49.846;9.610;2022-10-17T00:43:55;13.30;99.90
16327;DHT22;34812;49.846;9.610;2022-10-17T00:45:13;13.30;99.90
16327;DHT22;34812;49.846;9.610;2022-10-17T00:46:14;13.30;99.90
16327;DHT22;34812;49.846;9.610;2022-10-17T00:47:18;13.30;99.90
16327;DHT22;34812;49.846;9.610;2022-10-17T00:48:21;13.30;99.90
16327;DHT22;34812;49.846;9.610;2022-10-17T00:49:27;13.30;99.90
16327;DHT22;34812;49.846;9.610;2022-10-17T00:50:29;13.30;99.90
16327;DHT22;34812;49.846;9.610;2022-10-17T00:51:37;13.30;99.90
16327;DHT22;34812;49.846;9.610;2022-10-17T00:52:39;13.30;99.90
16327;DHT22;34812;49.846;9.610;2022-10-17T00:53:42;13.30;99.90
16327;DHT22;34812;49.846;9.610;2022-10-17T00:54:45;13.30;99.90
16327;DHT22;34812;49.846;9.610;2022-10-17T00:55:50;13.30;99.90
16327;DHT22;34812;49.846;9.610;2022-10-17T00:56:53;13.30;99.90
16327;DHT22;34812;49.846;9.610;2022-10-17T00:57:55;13.20;99.90
16327;DHT22;34812;49.846;9.610;2022-10-17T00:58:57;13.20;99.90
16327;DHT22;34812;49.846;9.610;2022-10-17T00:59:59;13.20;99.90
16327;DHT22;34812;49.846;9.610;2022-10-17T01:01:02;13.20;99.90
16327;DHT22;34812;49.846;9.610;2022-10-17T01:02:06;13.20;99.90
16327;DHT22;34812;49.846;9.610;2022-10-17T01:03:08;13.20;99.90
16327;DHT22;34812;49.846;9.610;2022-10-17T01:04:09;13.20;99.90
16327;DHT22;34812;49.846;9.610;2022-10-17T01:05:11;13.20;99.90
16327;DHT22;34812;49.846;9.610;2022-10-17T01:06:12;13.20;99.90
16327;DHT22;34812;49.846;9.610;2022-10-17T01:07:15;13.20;99.90
16327;DHT22;34812;49.846;9.610;2022-10-17T01:08:16;13.20;99.90
16327;DHT22;34812;49.846;9.610;2022-10-17T01:09:18;13.30;99.90
16327;DHT22;34812;49.846;9.610;2022-10-17T01:10:19;13.20;99.90
16327;DHT22;34812;49.846;9.610;2022-10-17T01:11:31;13.30;99.90
16327;DHT22;34812;49.846;9.610;2022-10-17T01:12:51;13.30;99.90
16327;DHT22;34812;49.846;9.610;2022-10-17T01:13:59;13.30;99.90
16327;DHT22;34812;49.846;9.610;2022-10-17T01:15:09;13.20;99.90
16327;DHT22;34812;49.846;9.610;2022-10-17T01:16:18;13.20;99.90
16327;DHT22;34812;49.846;9.610;2022-10-17T01:17:32;13.30;99.90
16327;DHT22;34812;49.846;9.610;2022-10-17T01:18:47;13.30;99.90
16327;DHT22;34812;49.846;9.610;2022-10-17T01:20:15;13.30;99.90
16327;DHT22;34812;49.846;9.610;2022-10-17T01:21:30;13.20;99.90
16327;DHT22;34812;49.846;9.610;2022-10-17T01:22:36;13.20;99.90
16327;DHT22;34812;49.846;9.610;2022-10-17T01:24:15;13.20;99.90
16327;DHT22;34812;49.846;9.610;2022-10-17T01:25:26;13.20;99.90
16327;DHT22;34812;49.846;9.610;2022-10-17T01:26:37;13.20;99.90
16327;DHT22;34812;49.846;9.610;2022-10-17T01:27:56;13.20;99.90
16327;DHT22;34812;49.846;9.610;2022-10-17T01:29:21;13.20;99.90
16327;DHT22;34812;49.846;9.610;2022-10-17T01:30:54;13.20;99.90
16327;DHT22;34812;49.846;9.610;2022-10-17T01:31:59;13.20;99.90
16327;DHT22;34812;49.846;9.610;2022-10-17T01:33:05;13.20;99.90
16327;DHT22;34812;49.846;9.610;2022-10-17T01:34:15;13.20;99.90
16327;DHT22;34812;49.846;9.610;2022-10-17T01:35:22;13.20;99.90
16327;DHT22;34812;49.846;9.610;2022-10-17T01:36:35;13.20;99.90
16327;DHT22;34812;49.846;9.610;2022-10-17T01:37:43;13.20;99.90
16327;DHT22;34812;49.846;9.610;2022-10-17T01:38:46;13.20;99.90
16327;DHT22;34812;49.846;9.610;2022-10-17T01:39:52;13.20;99.90
16327;DHT22;34812;49.846;9.610;2022-10-17T01:40:59;13.20;99.90
16327;DHT22;34812;49.846;9.610;2022-10-17T01:42:10;13.20;99.90
16327;DHT22;34812;49.846;9.610;2022-10-17T01:43:17;13.10;99.90
16327;DHT22;34812;49.846;9.610;2022-10-17T01:44:27;13.10;99.90
16327;DHT22;34812;49.846;9.610;2022-10-17T01:45:34;13.00;99.90
16327;DHT22;34812;49.846;9.610;2022-10-17T01:46:40;13.00;99.90
16327;DHT22;34812;49.846;9.610;2022-10-17T01:47:45;13.00;99.90
16327;DHT22;34812;49.846;9.610;2022-10-17T01:48:48;13.00;99.90
16327;DHT22;34812;49.846;9.610;2022-10-17T01:49:50;13.00;99.90
16327;DHT22;34812;49.846;9.610;2022-10-17T01:50:57;13.00;99.90
16327;DHT22;34812;49.846;9.610;2022-10-17T01:52:05;13.00;99.90
16327;DHT22;34812;49.846;9.610;2022-10-17T01:53:12;13.00;99.90
16327;DHT22;34812;49.846;9.610;2022-10-17T01:54:18;13.00;99.90
16327;DHT22;34812;49.846;9.610;2022-10-17T01:55:24;13.00;99.90
16327;DHT22;34812;49.846;9.610;2022-10-17T01:56:28;13.00;99.90
16327;DHT22;34812;49.846;9.610;2022-10-17T01:57:33;12.90;99.90
16327;DHT22;34812;49.846;9.610;2022-10-17T01:58:38;12.90;99.90
16327;DHT22;34812;49.846;9.610;2022-10-17T01:59:45;12.90;99.90
16327;DHT22;34812;49.846;9.610;2022-10-17T02:00:47;12.90;99.90
16327;DHT22;34812;49.846;9.610;2022-10-17T02:01:52;12.90;99.90
16327;DHT22;34812;49.846;9.610;2022-10-17T02:02:58;12.90;99.90
16327;DHT22;34812;49.846;9.610;2022-10-17T02:04:01;12.90;99.90
16327;DHT22;34812;49.846;9.610;2022-10-17T02:05:03;12.90;99.90
16327;DHT22;34812;49.846;9.610;2022-10-17T02:06:05;12.90;99.90
16327;DHT22;34812;49.846;9.610;2022-10-17T02:07:07;12.90;99.90
16327;DHT22;34812;49.846;9.610;2022-10-17T02:08:09;13.00;99.90
16327;DHT22;34812;49.846;9.610;2022-10-17T02:09:20;12.90;99.90
16327;DHT22;34812;49.846;9.610;2022-10-17T02:10:30;13.00;99.90
16327;DHT22;34812;49.846;9.610;2022-10-17T02:11:32;13.00;99.90
16327;DHT22;34812;49.846;9.610;2022-10-17T02:12:42;13.00;99.90
16327;DHT22;34812;49.846;9.610;2022-10-17T02:14:03;13.00;99.90
16327;DHT22;34812;49.846;9.610;2022-10-17T02:15:24;13.00;99.90
16327;DHT22;34812;49.846;9.610;2022-10-17T02:16:34;13.00;99.90
16327;DHT22;34812;49.846;9.610;2022-10-17T02:17:44;13.00;99.90
16327;DHT22;34812;49.846;9.610;2022-10-17T02:19:01;13.00;99.90
16327;DHT22;34812;49.846;9.610;2022-10-17T02:20:14;13.00;99.90
16327;DHT22;34812;49.846;9.610;2022-10-17T02:21:23;12.90;99.90
16327;DHT22;34812;49.846;9.610;2022-10-17T02:22:35;12.90;99.90
16327;DHT22;34812;49.846;9.610;2022-10-17T02:23:43;12.90;99.90
16327;DHT22;34812;49.846;9.610;2022-10-17T02:24:49;12.90;99.90
16327;DHT22;34812;49.846;9.610;2022-10-17T02:25:56;12.90;99.90
16327;DHT22;34812;49.846;9.610;2022-10-17T02:27:04;12.90;99.90
16327;DHT22;34812;49.846;9.610;2022-10-17T02:28:17;12.90;99.90
16327;DHT22;34812;49.846;9.610;2022-10-17T02:29:20;12.80;99.90
16327;DHT22;34812;49.846;9.610;2022-10-17T02:30:30;12.80;99.90
16327;DHT22;34812;49.846;9.610;2022-10-17T02:31:37;12.80;99.90
16327;DHT22;34812;49.846;9.610;2022-10-17T02:32:46;12.70;99.90
16327;DHT22;34812;49.846;9.610;2022-10-17T02:33:51;12.70;99.90
16327;DHT22;34812;49.846;9.610;2022-10-17T02:34:57;12.60;99.90
16327;DHT22;34812;49.846;9.610;2022-10-17T02:36:05;12.60;99.90
16327;DHT22;34812;49.846;9.610;2022-10-17T02:37:09;12.60;99.90
16327;DHT22;34812;49.846;9.610;2022-10-17T02:38:12;12.60;99.90
16327;DHT22;34812;49.846;9.610;2022-10-17T02:39:15;12.60;99.90
16327;DHT22;34812;49.846;9.610;2022-10-17T02:40:19;12.70;99.90
16327;DHT22;34812;49.846;9.610;2022-10-17T02:41:22;12.60;99.90
16327;DHT22;34812;49.846;9.610;2022-10-17T02:42:25;12.70;99.90
16327;DHT22;34812;49.846;9.610;2022-10-17T02:43:27;12.70;99.90
16327;DHT22;34812;49.846;9.610;2022-10-17T02:44:29;12.70;99.90
16327;DHT22;34812;49.846;9.610;2022-10-17T02:45:32;12.70;99.90
16327;DHT22;34812;49.846;9.610;2022-10-17T02:46:36;12.70;99.90
16327;DHT22;34812;49.846;9.610;2022-10-17T02:47:45;12.70;99.90
16327;DHT22;34812;49.846;9.610;2022-10-17T02:48:51;12.60;99.90
16327;DHT22;34812;49.846;9.610;2022-10-17T02:49:56;12.60;99.90
16327;DHT22;34812;49.846;9.610;2022-10-17T02:51:03;12.50;99.90
16327;DHT22;34812;49.846;9.610;2022-10-17T02:52:09;12.50;99.90
16327;DHT22;34812;49.846;9.610;2022-10-17T02:53:13;12.50;99.90
16327;DHT22;34812;49.846;9.610;2022-10-17T02:54:19;12.50;99.90
16327;DHT22;34812;49.846;9.610;2022-10-17T02:55:24;12.50;99.90
16327;DHT22;34812;49.846;9.610;2022-10-17T02:56:34;12.50;99.90
16327;DHT22;34812;49.846;9.610;2022-10-17T02:57:37;12.50;99.90
16327;DHT22;34812;49.846;9.610;2022-10-17T02:58:42;12.60;99.90
16327;DHT22;34812;49.846;9.610;2022-10-17T02:59:46;12.60;99.90
16327;DHT22;34812;49.846;9.610;2022-10-17T03:00:49;12.60;99.90
16327;DHT22;34812;49.846;9.610;2022-10-17T03:01:50;12.60;99.90
16327;DHT22;34812;49.846;9.610;2022-10-17T03:02:54;12.50;99.90
16327;DHT22;34812;49.846;9.610;2022-10-17T03:04:04;12.50;99.90
16327;DHT22;34812;49.846;9.610;2022-10-17T03:05:07;12.50;99.90
16327;DHT22;34812;49.846;9.610;2022-10-17T03:06:08;12.50;99.90
16327;DHT22;34812;49.846;9.610;2022-10-17T03:07:10;12.50;99.90
16327;DHT22;34812;49.846;9.610;2022-10-17T03:08:10;12.60;99.90
16327;DHT22;34812;49.846;9.610;2022-10-17T03:09:12;12.60;99.90
16327;DHT22;34812;49.846;9.610;2022-10-17T03:10:13;12.50;99.90
16327;DHT22;34812;49.846;9.610;2022-10-17T03:11:15;12.60;99.90
16327;DHT22;34812;49.846;9.610;2022-10-17T03:12:15;12.60;99.90
16327;DHT22;34812;49.846;9.610;2022-10-17T03:13:17;12.50;99.90
16327;DHT22;34812;49.846;9.610;2022-10-17T03:14:18;12.50;99.90
16327;DHT22;34812;49.846;9.610;2022-10-17T03:15:20;12.50;99.90
16327;DHT22;34812;49.846;9.610;2022-10-17T03:16:20;12.50;99.90
16327;DHT22;34812;49.846;9.610;2022-10-17T03:17:22;12.50;99.90
16327;DHT22;34812;49.846;9.610;2022-10-17T03:18:24;12.60;99.90
16327;DHT22;34812;49.846;9.610;2022-10-17T03:19:26;12.60;99.90
16327;DHT22;34812;49.846;9.610;2022-10-17T03:20:27;12.60;99.90
16327;DHT22;34812;49.846;9.610;2022-10-17T03:21:29;12.60;99.90
16327;DHT22;34812;49.846;9.610;2022-10-17T03:22:29;12.60;99.90
16327;DHT22;34812;49.846;9.610;2022-10-17T03:23:31;12.60;99.90
16327;DHT22;34812;49.846;9.610;2022-10-17T03:24:32;12.50;99.90
16327;DHT22;34812;49.846;9.610;2022-10-17T03:25:33;12.50;99.90
16327;DHT22;34812;49.846;9.610;2022-10-17T03:26:34;12.50;99.90
16327;DHT22;34812;49.846;9.610;2022-10-17T03:27:36;12.40;99.90
16327;DHT22;34812;49.846;9.610;2022-10-17T03:28:37;12.50;99.90
16327;DHT22;34812;49.846;9.610;2022-10-17T03:29:38;12.40;99.90
16327;DHT22;34812;49.846;9.610;2022-10-17T03:30:39;12.40;99.90
16327;DHT22;34812;49.846;9.610;2022-10-17T03:31:41;12.50;99.90
16327;DHT22;34812;49.846;9.610;2022-10-17T03:32:42;12.40;99.90
16327;DHT22;34812;49.846;9.610;2022-10-17T03:33:45;12.40;99.90
16327;DHT22;34812;49.846;9.610;2022-10-17T03:34:45;12.40;99.90
16327;DHT22;34812;49.846;9.610;2022-10-17T03:35:47;12.40;99.90
16327;DHT22;34812;49.846;9.610;2022-10-17T03:36:48;12.40;99.90
16327;DHT22;34812;49.846;9.610;2022-10-17T03:37:49;12.40;99.90
16327;DHT22;34812;49.846;9.610;2022-10-17T03:38:52;12.40;99.90
16327;DHT22;34812;49.846;9.610;2022-10-17T03:39:54;12.40;99.90
16327;DHT22;34812;49.846;9.610;2022-10-17T03:40:55;12.40;99.90
16327;DHT22;34812;49.846;9.610;2022-10-17T03:41:57;12.40;99.90
16327;DHT22;34812;49.846;9.610;2022-10-17T03:42:58;12.30;99.90
16327;DHT22;34812;49.846;9.610;2022-10-17T03:43:59;12.30;99.90
16327;DHT22;34812;49.846;9.610;2022-10-17T03:45:00;12.30;99.90
16327;DHT22;34812;49.846;9.610;2022-10-17T03:46:03;12.30;99.90
16327;DHT22;34812;49.846;9.610;2022-10-17T03:47:03;12.30;99.90
16327;DHT22;34812;49.846;9.610;2022-10-17T03:48:05;12.30;99.90
16327;DHT22;34812;49.846;9.610;2022-10-17T03:49:08;12.30;99.90
16327;DHT22;34812;49.846;9.610;2022-10-17T03:50:10;12.30;99.90
16327;DHT22;34812;49.846;9.610;2022-10-17T03:51:11;12.30;99.90
16327;DHT22;34812;49.846;9.610;2022-10-17T03:52:13;12.30;99.90
16327;DHT22;34812;49.846;9.610;2022-10-17T03:53:14;12.30;99.90
16327;DHT22;34812;49.846;9.610;2022-10-17T03:54:16;12.30;99.90
16327;DHT22;34812;49.846;9.610;2022-10-17T03:55:17;12.30;99.90
16327;DHT22;34812;49.846;9.610;2022-10-17T03:56:20;12.30;99.90
16327;DHT22;34812;49.846;9.610;2022-10-17T03:57:21;12.30;99.90
16327;DHT22;34812;49.846;9.610;2022-10-17T03:58:23;12.30;99.90
16327;DHT22;34812;49.846;9.610;2022-10-17T03:59:23;12.30;99.90
16327;DHT22;34812;49.846;9.610;2022-10-17T04:00:25;12.30;99.90
16327;DHT22;34812;49.846;9.610;2022-10-17T04:01:26;12.30;99.90
16327;DHT22;34812;49.846;9.610;2022-10-17T04:02:28;12.20;99.90
16327;DHT22;34812;49.846;9.610;2022-10-17T04:03:28;12.20;99.90
16327;DHT22;34812;49.846;9.610;2022-10-17T04:04:31;12.20;99.90
16327;DHT22;34812;49.846;9.610;2022-10-17T04:05:32;12.30;99.90
16327;DHT22;34812;49.846;9.610;2022-10-17T04:06:34;12.30;99.90
16327;DHT22;34812;49.846;9.610;2022-10-17T04:07:35;12.20;99.90
16327;DHT22;34812;49.846;9.610;2022-10-17T04:08:37;12.30;99.90
16327;DHT22;34812;49.846;9.610;2022-10-17T04:09:38;12.30;99.90
16327;DHT22;34812;49.846;9.610;2022-10-17T04:10:40;12.30;99.90
16327;DHT22;34812;49.846;9.610;2022-10-17T04:11:40;12.30;99.90
16327;DHT22;34812;49.846;9.610;2022-10-17T04:12:42;12.30;99.90
16327;DHT22;34812;49.846;9.610;2022-10-17T04:13:43;12.30;99.90
16327;DHT22;34812;49.846;9.610;2022-10-17T04:14:46;12.30;99.90
16327;DHT22;34812;49.846;9.610;2022-10-17T04:15:53;12.30;99.90
16327;DHT22;34812;49.846;9.610;2022-10-17T04:16:55;12.30;99.90
16327;DHT22;34812;49.846;9.610;2022-10-17T04:17:57;12.30;99.90
16327;DHT22;34812;49.846;9.610;2022-10-17T04:18:58;12.30;99.90
16327;DHT22;34812;49.846;9.610;2022-10-17T04:20:02;12.30;99.90
16327;DHT22;34812;49.846;9.610;2022-10-17T04:21:04;12.40;99.90
16327;DHT22;34812;49.846;9.610;2022-10-17T04:22:05;12.30;99.90
16327;DHT22;34812;49.846;9.610;2022-10-17T04:23:07;12.30;99.90
16327;DHT22;34812;49.846;9.610;2022-10-17T04:24:10;12.30;99.90
16327;DHT22;34812;49.846;9.610;2022-10-17T04:25:12;12.30;99.90
16327;DHT22;34812;49.846;9.610;2022-10-17T04:26:12;12.30;99.90
16327;DHT22;34812;49.846;9.610;2022-10-17T04:27:14;12.30;99.90
16327;DHT22;34812;49.846;9.610;2022-10-17T04:28:16;12.30;99.90
16327;DHT22;34812;49.846;9.610;2022-10-17T04:29:17;12.30;99.90
16327;DHT22;34812;49.846;9.610;2022-10-17T04:30:19;12.30;99.90
16327;DHT22;34812;49.846;9.610;2022-10-17T04:31:21;12.30;99.90
16327;DHT22;34812;49.846;9.610;2022-10-17T04:32:21;12.30;99.90
16327;DHT22;34812;49.846;9.610;2022-10-17T04:33:25;12.30;99.90
16327;DHT22;34812;49.846;9.610;2022-10-17T04:34:25;12.30;99.90
16327;DHT22;34812;49.846;9.610;2022-10-17T04:35:28;12.30;99.90
16327;DHT22;34812;49.846;9.610;2022-10-17T04:36:30;12.20;99.90
16327;DHT22;34812;49.846;9.610;2022-10-17T04:37:31;12.20;99.90
16327;DHT22;34812;49.846;9.610;2022-10-17T04:38:33;12.20;99.90
16327;DHT22;34812;49.846;9.610;2022-10-17T04:39:34;12.20;99.90
16327;DHT22;34812;49.846;9.610;2022-10-17T04:40:35;12.20;99.90
16327;DHT22;34812;49.846;9.610;2022-10-17T04:41:36;12.20;99.90
16327;DHT22;34812;49.846;9.610;2022-10-17T04:42:38;12.20;99.90
16327;DHT22;34812;49.846;9.610;2022-10-17T04:43:39;12.20;99.90
16327;DHT22;34812;49.846;9.610;2022-10-17T04:44:41;12.20;99.90
16327;DHT22;34812;49.846;9.610;2022-10-17T04:45:41;12.20;99.90
16327;DHT22;34812;49.846;9.610;2022-10-17T04:46:43;12.20;99.90
16327;DHT22;34812;49.846;9.610;2022-10-17T04:47:44;12.10;99.90
16327;DHT22;34812;49.846;9.610;2022-10-17T04:48:45;12.20;99.90
16327;DHT22;34812;49.846;9.610;2022-10-17T04:49:46;12.10;99.90
16327;DHT22;34812;49.846;9.610;2022-10-17T04:50:56;12.10;99.90
16327;DHT22;34812;49.846;9.610;2022-10-17T04:51:58;12.10;99.90
16327;DHT22;34812;49.846;9.610;2022-10-17T04:52:59;12.10;99.90
16327;DHT22;34812;49.846;9.610;2022-10-17T04:54:00;12.10;99.90
16327;DHT22;34812;49.846;9.610;2022-10-17T04:55:03;12.10;99.90
16327;DHT22;34812;49.846;9.610;2022-10-17T04:56:08;12.00;99.90
16327;DHT22;34812;49.846;9.610;2022-10-17T04:57:10;12.00;99.90
16327;DHT22;34812;49.846;9.610;2022-10-17T04:58:10;12.00;99.90
16327;DHT22;34812;49.846;9.610;2022-10-17T04:59:12;12.00;99.90
16327;DHT22;34812;49.846;9.610;2022-10-17T05:00:13;12.00;99.90
16327;DHT22;34812;49.846;9.610;2022-10-17T05:01:16;12.00;99.90
16327;DHT22;34812;49.846;9.610;2022-10-17T05:02:17;12.00;99.90
16327;DHT22;34812;49.846;9.610;2022-10-17T05:03:19;12.00;99.90
16327;DHT22;34812;49.846;9.610;2022-10-17T05:04:20;12.00;99.90
16327;DHT22;34812;49.846;9.610;2022-10-17T05:05:22;12.00;99.90
16327;DHT22;34812;49.846;9.610;2022-10-17T05:06:25;12.00;99.90
16327;DHT22;34812;49.846;9.610;2022-10-17T05:07:28;12.00;99.90
16327;DHT22;34812;49.846;9.610;2022-10-17T05:08:28;12.00;99.90
16327;DHT22;34812;49.846;9.610;2022-10-17T05:09:30;11.90;99.90
16327;DHT22;34812;49.846;9.610;2022-10-17T05:10:35;11.90;99.90
16327;DHT22;34812;49.846;9.610;2022-10-17T05:11:36;11.80;99.90
16327;DHT22;34812;49.846;9.610;2022-10-17T05:12:37;11.80;99.90
16327;DHT22;34812;49.846;9.610;2022-10-17T05:13:39;11.80;99.90
16327;DHT22;34812;49.846;9.610;2022-10-17T05:14:40;11.80;99.90
16327;DHT22;34812;49.846;9.610;2022-10-17T05:15:41;11.80;99.90
16327;DHT22;34812;49.846;9.610;2022-10-17T05:16:42;11.70;99.90
16327;DHT22;34812;49.846;9.610;2022-10-17T05:17:44;11.70;99.90
16327;DHT22;34812;49.846;9.610;2022-10-17T05:18:47;11.70;99.90
16327;DHT22;34812;49.846;9.610;2022-10-17T05:19:49;11.70;99.90
16327;DHT22;34812;49.846;9.610;2022-10-17T05:20:50;11.70;99.90
16327;DHT22;34812;49.846;9.610;2022-10-17T05:21:53;11.60;99.90
16327;DHT22;34812;49.846;9.610;2022-10-17T05:22:53;11.60;99.90
16327;DHT22;34812;49.846;9.610;2022-10-17T05:23:55;11.60;99.90
16327;DHT22;34812;49.846;9.610;2022-10-17T05:24:56;11.60;99.90
16327;DHT22;34812;49.846;9.610;2022-10-17T05:25:58;11.60;99.90
16327;DHT22;34812;49.846;9.610;2022-10-17T05:26:59;11.50;99.90
16327;DHT22;34812;49.846;9.610;2022-10-17T05:28:01;11.50;99.90
16327;DHT22;34812;49.846;9.610;2022-10-17T05:29:02;11.60;99.90
16327;DHT22;34812;49.846;9.610;2022-10-17T05:30:05;11.60;99.90
16327;DHT22;34812;49.846;9.610;2022-10-17T05:31:08;11.60;99.90
16327;DHT22;34812;49.846;9.610;2022-10-17T05:32:10;11.60;99.90
16327;DHT22;34812;49.846;9.610;2022-10-17T05:33:10;11.60;99.90
16327;DHT22;34812;49.846;9.610;2022-10-17T05:34:12;11.60;99.90
16327;DHT22;34812;49.846;9.610;2022-10-17T05:35:13;11.60;99.90
16327;DHT22;34812;49.846;9.610;2022-10-17T05:36:15;11.60;99.90
16327;DHT22;34812;49.846;9.610;2022-10-17T05:37:18;11.60;99.90
16327;DHT22;34812;49.846;9.610;2022-10-17T05:38:18;11.60;99.90
16327;DHT22;34812;49.846;9.610;2022-10-17T05:39:20;11.50;99.90
16327;DHT22;34812;49.846;9.610;2022-10-17T05:40:22;11.60;99.90
16327;DHT22;34812;49.846;9.610;2022-10-17T05:41:24;11.50;99.90
16327;DHT22;34812;49.846;9.610;2022-10-17T05:42:25;11.50;99.90
16327;DHT22;34812;49.846;9.610;2022-10-17T05:43:27;11.50;99.90
16327;DHT22;34812;49.846;9.610;2022-10-17T05:44:28;11.60;99.90
16327;DHT22;34812;49.846;9.610;2022-10-17T05:45:30;11.50;99.90
16327;DHT22;34812;49.846;9.610;2022-10-17T05:46:31;11.50;99.90
16327;DHT22;34812;49.846;9.610;2022-10-17T05:47:33;11.50;99.90
16327;DHT22;34812;49.846;9.610;2022-10-17T05:48:34;11.50;99.90
16327;DHT22;34812;49.846;9.610;2022-10-17T05:49:36;11.40;99.90
16327;DHT22;34812;49.846;9.610;2022-10-17T05:50:36;11.40;99.90
16327;DHT22;34812;49.846;9.610;2022-10-17T05:51:38;11.50;99.90
16327;DHT22;34812;49.846;9.610;2022-10-17T05:52:40;11.40;99.90
16327;DHT22;34812;49.846;9.610;2022-10-17T05:53:42;11.50;99.90
16327;DHT22;34812;49.846;9.610;2022-10-17T05:54:43;11.50;99.90
16327;DHT22;34812;49.846;9.610;2022-10-17T05:55:44;11.50;99.90
16327;DHT22;34812;49.846;9.610;2022-10-17T05:56:50;11.50;99.90
16327;DHT22;34812;49.846;9.610;2022-10-17T05:57:51;11.50;99.90
16327;DHT22;34812;49.846;9.610;2022-10-17T05:58:53;11.50;99.90
16327;DHT22;34812;49.846;9.610;2022-10-17T05:59:55;11.50;99.90
16327;DHT22;34812;49.846;9.610;2022-10-17T06:00:59;11.50;99.90
16327;DHT22;34812;49.846;9.610;2022-10-17T06:02:01;11.50;99.90
16327;DHT22;34812;49.846;9.610;2022-10-17T06:03:02;11.50;99.90
16327;DHT22;34812;49.846;9.610;2022-10-17T06:04:04;11.50;99.90
16327;DHT22;34812;49.846;9.610;2022-10-17T06:05:05;11.50;99.90
16327;DHT22;34812;49.846;9.610;2022-10-17T06:06:09;11.50;99.90
16327;DHT22;34812;49.846;9.610;2022-10-17T06:07:10;11.50;99.90
16327;DHT22;34812;49.846;9.610;2022-10-17T06:08:13;11.60;99.90
16327;DHT22;34812;49.846;9.610;2022-10-17T06:09:13;11.60;99.90
16327;DHT22;34812;49.846;9.610;2022-10-17T06:10:15;11.60;99.90
16327;DHT22;34812;49.846;9.610;2022-10-17T06:11:17;11.60;99.90
16327;DHT22;34812;49.846;9.610;2022-10-17T06:12:19;11.50;99.90
16327;DHT22;34812;49.846;9.610;2022-10-17T06:13:20;11.50;99.90
16327;DHT22;34812;49.846;9.610;2022-10-17T06:14:21;11.50;99.90
16327;DHT22;34812;49.846;9.610;2022-10-17T06:15:22;11.50;99.90
16327;DHT22;34812;49.846;9.610;2022-10-17T06:16:24;11.50;99.90
16327;DHT22;34812;49.846;9.610;2022-10-17T06:17:25;11.60;99.90
16327;DHT22;34812;49.846;9.610;2022-10-17T06:18:27;11.60;99.90
16327;DHT22;34812;49.846;9.610;2022-10-17T06:19:29;11.60;99.90
16327;DHT22;34812;49.846;9.610;2022-10-17T06:20:31;11.60;99.90
16327;DHT22;34812;49.846;9.610;2022-10-17T06:21:31;11.60;99.90
16327;DHT22;34812;49.846;9.610;2022-10-17T06:22:35;11.60;99.90
16327;DHT22;34812;49.846;9.610;2022-10-17T06:23:38;11.60;99.90
16327;DHT22;34812;49.846;9.610;2022-10-17T06:24:41;11.60;99.90
16327;DHT22;34812;49.846;9.610;2022-10-17T06:25:42;11.60;99.90
16327;DHT22;34812;49.846;9.610;2022-10-17T06:26:43;11.60;99.90
16327;DHT22;34812;49.846;9.610;2022-10-17T06:27:44;11.60;99.90
16327;DHT22;34812;49.846;9.610;2022-10-17T06:28:46;11.70;99.90
16327;DHT22;34812;49.846;9.610;2022-10-17T06:29:47;11.70;99.90
16327;DHT22;34812;49.846;9.610;2022-10-17T06:30:50;11.70;99.90
16327;DHT22;34812;49.846;9.610;2022-10-17T06:31:51;11.70;99.90
16327;DHT22;34812;49.846;9.610;2022-10-17T06:32:53;11.70;99.90
16327;DHT22;34812;49.846;9.610;2022-10-17T06:33:54;11.70;99.90
16327;DHT22;34812;49.846;9.610;2022-10-17T06:34:55;11.70;99.90
16327;DHT22;34812;49.846;9.610;2022-10-17T06:35:56;11.70;99.90
16327;DHT22;34812;49.846;9.610;2022-10-17T06:36:58;11.70;99.90
16327;DHT22;34812;49.846;9.610;2022-10-17T06:38:00;11.70;99.90
16327;DHT22;34812;49.846;9.610;2022-10-17T06:39:02;11.70;99.90
16327;DHT22;34812;49.846;9.610;2022-10-17T06:40:05;11.70;99.90
16327;DHT22;34812;49.846;9.610;2022-10-17T06:41:11;11.70;99.90